Skip Navigation Links Skip Navigation Links

Current Weather

North Las Vegas, Las Vegas, Nev.

For information only: do not use for flight planning or navigation.
Latest weather
Observation time Wednesday, August 12, 2020 11:36 AM PDT
Local time Wednesday, August 12, 2020 11:52 AM PDT
Flight conditions Visual Meteorological Conditions
Winds
Wind direction South-Southwest (210°)
Wind shift observed 11:16 AM
Wind speed 14 mph
Wind gusting to 24 mph
Visibility 10 mi.
Sky condition
Ceiling unlimited
Sky clear
Temperature 103°F
Dewpoint 8°F
Altimeter 29.92 in.Hg
Derived measurements
Relative humidity 3%
Heat index 103°F
Density altitude 5001 ft.
Remarks
Automated weather observing station with precipitation discriminator.
METAR KVGT 121836Z 21012G21KT 10SM CLR 39/M13 A2992 RMK AO2 WSHFT 1816 T03941133

Settings

Location code

InnerDrive.Weather 4.0.6770.0 Release CLR 4.0.30319.42000
Copyright ©2018 Inner Drive Technology. All rights reserved. Portions Copyright ©1986-2018 David Braverman.

Find weather

Site navigation


Skip Navigation Links

Place info

Page info

PayPal - The safer, easier way to pay online!

Return home.

Copyright ©2020 Inner Drive Technology. Purveyors of fine, hand-crafted computer software. Page printed 2020-08-12T18:52:39 UTC.